sensor_id;sensor_type;location;lat;lon;timestamp;temperature;humidity
11961;DHT22;6040;49.358;11.140;2024-02-26T00:02:10;3.00;99.90
11961;DHT22;6040;49.358;11.140;2024-02-26T00:04:37;3.00;99.90
11961;DHT22;6040;49.358;11.140;2024-02-26T00:07:04;3.00;99.90
11961;DHT22;6040;49.358;11.140;2024-02-26T00:09:31;2.90;99.90
11961;DHT22;6040;49.358;11.140;2024-02-26T00:12:04;4.50;99.90
11961;DHT22;6040;49.358;11.140;2024-02-26T00:14:31;2.90;99.90
11961;DHT22;6040;49.358;11.140;2024-02-26T00:16:58;2.90;99.90
11961;DHT22;6040;49.358;11.140;2024-02-26T00:19:26;2.80;99.90
11961;DHT22;6040;49.358;11.140;2024-02-26T00:21:53;2.80;99.90
11961;DHT22;6040;49.358;11.140;2024-02-26T00:24:21;2.80;99.90
11961;DHT22;6040;49.358;11.140;2024-02-26T00:26:48;2.80;99.90
11961;DHT22;6040;49.358;11.140;2024-02-26T00:29:18;4.00;99.90
11961;DHT22;6040;49.358;11.140;2024-02-26T00:31:45;2.70;99.90
11961;DHT22;6040;49.358;11.140;2024-02-26T00:34:12;2.80;99.90
11961;DHT22;6040;49.358;11.140;2024-02-26T00:36:40;4.20;99.90
11961;DHT22;6040;49.358;11.140;2024-02-26T00:39:07;2.70;99.90
11961;DHT22;6040;49.358;11.140;2024-02-26T00:41:38;2.70;99.90
11961;DHT22;6040;49.358;11.140;2024-02-26T00:44:05;2.70;99.90
11961;DHT22;6040;49.358;11.140;2024-02-26T00:46:32;2.70;99.90
11961;DHT22;6040;49.358;11.140;2024-02-26T00:48:59;2.70;99.90
11961;DHT22;6040;49.358;11.140;2024-02-26T00:51:25;2.60;99.90
11961;DHT22;6040;49.358;11.140;2024-02-26T00:53:54;2.60;99.90
11961;DHT22;6040;49.358;11.140;2024-02-26T00:56:21;2.60;99.90
11961;DHT22;6040;49.358;11.140;2024-02-26T00:58:48;2.70;99.90
11961;DHT22;6040;49.358;11.140;2024-02-26T01:01:15;2.60;99.90
11961;DHT22;6040;49.358;11.140;2024-02-26T01:03:42;2.60;99.90
11961;DHT22;6040;49.358;11.140;2024-02-26T01:06:08;2.60;99.90
11961;DHT22;6040;49.358;11.140;2024-02-26T01:08:36;2.90;99.90
11961;DHT22;6040;49.358;11.140;2024-02-26T01:11:04;2.50;99.90
11961;DHT22;6040;49.358;11.140;2024-02-26T01:13:31;3.20;99.90
11961;DHT22;6040;49.358;11.140;2024-02-26T01:15:58;2.50;99.90
11961;DHT22;6040;49.358;11.140;2024-02-26T01:18:28;4.40;99.90
11961;DHT22;6040;49.358;11.140;2024-02-26T01:20:55;2.40;99.90
11961;DHT22;6040;49.358;11.140;2024-02-26T01:23:22;2.40;99.90
11961;DHT22;6040;49.358;11.140;2024-02-26T01:25:49;2.30;99.90
11961;DHT22;6040;49.358;11.140;2024-02-26T01:28:17;2.30;99.90
11961;DHT22;6040;49.358;11.140;2024-02-26T01:30:44;2.30;99.90
11961;DHT22;6040;49.358;11.140;2024-02-26T01:33:11;2.20;99.90
11961;DHT22;6040;49.358;11.140;2024-02-26T01:35:38;2.20;99.90
11961;DHT22;6040;49.358;11.140;2024-02-26T01:38:05;2.20;99.90
11961;DHT22;6040;49.358;11.140;2024-02-26T01:40:31;2.10;99.90
11961;DHT22;6040;49.358;11.140;2024-02-26T01:42:59;3.50;99.90
11961;DHT22;6040;49.358;11.140;2024-02-26T01:45:27;2.20;99.90
11961;DHT22;6040;49.358;11.140;2024-02-26T01:47:54;2.10;99.90
11961;DHT22;6040;49.358;11.140;2024-02-26T01:50:22;2.20;99.90
11961;DHT22;6040;49.358;11.140;2024-02-26T01:52:50;2.20;99.90
11961;DHT22;6040;49.358;11.140;2024-02-26T01:55:17;2.20;99.90
11961;DHT22;6040;49.358;11.140;2024-02-26T01:57:45;2.20;99.90
11961;DHT22;6040;49.358;11.140;2024-02-26T02:00:14;2.30;99.90
11961;DHT22;6040;49.358;11.140;2024-02-26T02:02:43;2.20;99.90
11961;DHT22;6040;49.358;11.140;2024-02-26T02:05:12;3.40;99.90
11961;DHT22;6040;49.358;11.140;2024-02-26T02:17:48;0.70;99.90
11961;DHT22;6040;49.358;11.140;2024-02-26T02:20:16;2.60;99.90
11961;DHT22;6040;49.358;11.140;2024-02-26T02:22:45;3.60;99.90
11961;DHT22;6040;49.358;11.140;2024-02-26T02:25:12;4.10;99.90
11961;DHT22;6040;49.358;11.140;2024-02-26T02:27:40;2.60;99.90
11961;DHT22;6040;49.358;11.140;2024-02-26T02:30:08;2.60;99.90
11961;DHT22;6040;49.358;11.140;2024-02-26T02:32:35;2.60;99.90
11961;DHT22;6040;49.358;11.140;2024-02-26T02:35:04;4.80;99.90
11961;DHT22;6040;49.358;11.140;2024-02-26T02:37:31;2.60;99.90
11961;DHT22;6040;49.358;11.140;2024-02-26T02:39:59;2.70;99.90
11961;DHT22;6040;49.358;11.140;2024-02-26T02:42:26;2.70;99.90
11961;DHT22;6040;49.358;11.140;2024-02-26T02:44:53;2.80;99.90
11961;DHT22;6040;49.358;11.140;2024-02-26T02:47:20;2.80;99.90
11961;DHT22;6040;49.358;11.140;2024-02-26T02:49:47;2.80;99.90
11961;DHT22;6040;49.358;11.140;2024-02-26T02:52:13;2.70;99.90
11961;DHT22;6040;49.358;11.140;2024-02-26T02:54:40;2.80;99.90
11961;DHT22;6040;49.358;11.140;2024-02-26T02:57:09;2.80;99.90
11961;DHT22;6040;49.358;11.140;2024-02-26T02:59:36;2.80;99.90
11961;DHT22;6040;49.358;11.140;2024-02-26T03:02:03;3.10;99.90
11961;DHT22;6040;49.358;11.140;2024-02-26T03:04:30;2.70;99.90
11961;DHT22;6040;49.358;11.140;2024-02-26T03:06:57;3.30;99.90
11961;DHT22;6040;49.358;11.140;2024-02-26T03:09:24;2.70;99.90
11961;DHT22;6040;49.358;11.140;2024-02-26T03:11:51;2.70;99.90
11961;DHT22;6040;49.358;11.140;2024-02-26T03:14:19;4.40;99.90
11961;DHT22;6040;49.358;11.140;2024-02-26T03:16:46;2.70;99.90
11961;DHT22;6040;49.358;11.140;2024-02-26T03:19:14;2.70;99.90
11961;DHT22;6040;49.358;11.140;2024-02-26T03:21:41;2.70;99.90
11961;DHT22;6040;49.358;11.140;2024-02-26T03:24:08;2.70;99.90
11961;DHT22;6040;49.358;11.140;2024-02-26T03:26:36;2.70;99.90
11961;DHT22;6040;49.358;11.140;2024-02-26T03:29:02;2.70;99.90
11961;DHT22;6040;49.358;11.140;2024-02-26T03:31:31;2.70;99.90
11961;DHT22;6040;49.358;11.140;2024-02-26T03:33:58;3.70;99.90
11961;DHT22;6040;49.358;11.140;2024-02-26T03:36:25;2.80;99.90
11961;DHT22;6040;49.358;11.140;2024-02-26T03:38:52;2.80;99.90
11961;DHT22;6040;49.358;11.140;2024-02-26T03:41:19;2.80;99.90
11961;DHT22;6040;49.358;11.140;2024-02-26T03:43:45;2.70;99.90
11961;DHT22;6040;49.358;11.140;2024-02-26T03:46:12;3.90;99.90
11961;DHT22;6040;49.358;11.140;2024-02-26T03:58:47;2.70;99.90
11961;DHT22;6040;49.358;11.140;2024-02-26T04:01:13;2.80;99.90
11961;DHT22;6040;49.358;11.140;2024-02-26T04:03:41;3.00;99.90
11961;DHT22;6040;49.358;11.140;2024-02-26T04:06:09;2.70;99.90
11961;DHT22;6040;49.358;11.140;2024-02-26T04:08:36;2.70;99.90
11961;DHT22;6040;49.358;11.140;2024-02-26T04:11:03;2.80;99.90
11961;DHT22;6040;49.358;11.140;2024-02-26T04:13:32;2.80;99.90
11961;DHT22;6040;49.358;11.140;2024-02-26T04:16:01;2.80;99.90
11961;DHT22;6040;49.358;11.140;2024-02-26T04:18:28;2.80;99.90
11961;DHT22;6040;49.358;11.140;2024-02-26T04:20:55;2.80;99.90
11961;DHT22;6040;49.358;11.140;2024-02-26T04:23:22;2.80;99.90
11961;DHT22;6040;49.358;11.140;2024-02-26T04:25:49;2.80;99.90
11961;DHT22;6040;49.358;11.140;2024-02-26T04:28:16;2.80;99.90
11961;DHT22;6040;49.358;11.140;2024-02-26T04:30:43;2.80;99.90
11961;DHT22;6040;49.358;11.140;2024-02-26T04:33:11;2.70;99.90
11961;DHT22;6040;49.358;11.140;2024-02-26T04:35:38;4.60;99.90
11961;DHT22;6040;49.358;11.140;2024-02-26T04:38:04;2.70;99.90
11961;DHT22;6040;49.358;11.140;2024-02-26T04:40:31;2.70;99.90
11961;DHT22;6040;49.358;11.140;2024-02-26T04:42:58;2.80;99.90
11961;DHT22;6040;49.358;11.140;2024-02-26T04:45:25;2.80;99.90
11961;DHT22;6040;49.358;11.140;2024-02-26T04:47:51;2.80;99.90
11961;DHT22;6040;49.358;11.140;2024-02-26T04:50:20;2.70;99.90
11961;DHT22;6040;49.358;11.140;2024-02-26T04:52:46;3.60;99.90
11961;DHT22;6040;49.358;11.140;2024-02-26T04:55:13;4.30;99.90
11961;DHT22;6040;49.358;11.140;2024-02-26T04:57:40;3.10;99.90
11961;DHT22;6040;49.358;11.140;2024-02-26T05:00:08;2.70;99.90
11961;DHT22;6040;49.358;11.140;2024-02-26T05:02:35;2.70;99.90
11961;DHT22;6040;49.358;11.140;2024-02-26T05:05:04;2.70;99.90
11961;DHT22;6040;49.358;11.140;2024-02-26T05:07:32;2.70;99.90
11961;DHT22;6040;49.358;11.140;2024-02-26T05:09:59;2.80;99.90
11961;DHT22;6040;49.358;11.140;2024-02-26T05:12:26;4.70;99.90
11961;DHT22;6040;49.358;11.140;2024-02-26T05:14:53;2.80;99.90
11961;DHT22;6040;49.358;11.140;2024-02-26T05:17:19;2.80;99.90
11961;DHT22;6040;49.358;11.140;2024-02-26T05:19:46;2.80;99.90
11961;DHT22;6040;49.358;11.140;2024-02-26T05:22:13;3.80;99.90
11961;DHT22;6040;49.358;11.140;2024-02-26T05:24:42;2.70;99.90
11961;DHT22;6040;49.358;11.140;2024-02-26T05:27:09;4.80;99.90
11961;DHT22;6040;49.358;11.140;2024-02-26T05:29:36;3.10;99.90
11961;DHT22;6040;49.358;11.140;2024-02-26T05:32:03;2.70;99.90
11961;DHT22;6040;49.358;11.140;2024-02-26T05:34:58;2.70;99.90
11961;DHT22;6040;49.358;11.140;2024-02-26T05:37:25;2.80;99.90
11961;DHT22;6040;49.358;11.140;2024-02-26T05:39:53;4.30;99.90
11961;DHT22;6040;49.358;11.140;2024-02-26T05:42:20;2.80;99.90
11961;DHT22;6040;49.358;11.140;2024-02-26T05:44:47;2.80;99.90
11961;DHT22;6040;49.358;11.140;2024-02-26T05:47:14;2.80;99.90
11961;DHT22;6040;49.358;11.140;2024-02-26T05:49:41;2.80;99.90
11961;DHT22;6040;49.358;11.140;2024-02-26T05:52:07;2.80;99.90
11961;DHT22;6040;49.358;11.140;2024-02-26T05:54:34;2.80;99.90
11961;DHT22;6040;49.358;11.140;2024-02-26T05:57:03;2.90;99.90
11961;DHT22;6040;49.358;11.140;2024-02-26T05:59:29;2.90;99.90
11961;DHT22;6040;49.358;11.140;2024-02-26T06:01:56;2.90;99.90
11961;DHT22;6040;49.358;11.140;2024-02-26T06:04:23;2.90;99.90
11961;DHT22;6040;49.358;11.140;2024-02-26T06:06:50;3.00;99.90
11961;DHT22;6040;49.358;11.140;2024-02-26T06:09:17;3.00;99.90
11961;DHT22;6040;49.358;11.140;2024-02-26T06:11:44;3.00;99.90
11961;DHT22;6040;49.358;11.140;2024-02-26T06:14:12;3.00;99.90
11961;DHT22;6040;49.358;11.140;2024-02-26T06:16:40;3.00;99.90
11961;DHT22;6040;49.358;11.140;2024-02-26T06:19:06;3.00;99.90
11961;DHT22;6040;49.358;11.140;2024-02-26T06:21:33;3.00;99.90
11961;DHT22;6040;49.358;11.140;2024-02-26T06:24:01;4.50;99.90
11961;DHT22;6040;49.358;11.140;2024-02-26T06:26:28;3.00;99.90
11961;DHT22;6040;49.358;11.140;2024-02-26T06:28:55;3.10;99.90
11961;DHT22;6040;49.358;11.140;2024-02-26T06:31:23;4.20;99.90
11961;DHT22;6040;49.358;11.140;2024-02-26T06:33:50;3.20;99.90
11961;DHT22;6040;49.358;11.140;2024-02-26T06:36:17;3.20;99.90
11961;DHT22;6040;49.358;11.140;2024-02-26T06:38:43;3.30;99.90
11961;DHT22;6040;49.358;11.140;2024-02-26T06:41:10;3.30;99.90
11961;DHT22;6040;49.358;11.140;2024-02-26T06:43:38;3.40;99.90
11961;DHT22;6040;49.358;11.140;2024-02-26T06:46:05;4.80;99.90
11961;DHT22;6040;49.358;11.140;2024-02-26T06:48:34;3.80;99.90
11961;DHT22;6040;49.358;11.140;2024-02-26T06:51:02;3.70;99.90
11961;DHT22;6040;49.358;11.140;2024-02-26T06:53:29;3.70;99.90
11961;DHT22;6040;49.358;11.140;2024-02-26T06:55:56;3.70;99.90
11961;DHT22;6040;49.358;11.140;2024-02-26T06:58:23;3.70;99.90
11961;DHT22;6040;49.358;11.140;2024-02-26T07:00:50;3.70;99.90
11961;DHT22;6040;49.358;11.140;2024-02-26T07:03:16;3.70;99.90
11961;DHT22;6040;49.358;11.140;2024-02-26T07:05:44;3.70;99.90
11961;DHT22;6040;49.358;11.140;2024-02-26T07:08:11;3.70;99.90
11961;DHT22;6040;49.358;11.140;2024-02-26T07:10:38;3.70;99.90
11961;DHT22;6040;49.358;11.140;2024-02-26T07:13:05;3.70;99.90
11961;DHT22;6040;49.358;11.140;2024-02-26T07:15:32;3.80;99.90
11961;DHT22;6040;49.358;11.140;2024-02-26T07:17:59;4.80;99.90
11961;DHT22;6040;49.358;11.140;2024-02-26T07:20:28;5.10;99.90
11961;DHT22;6040;49.358;11.140;2024-02-26T07:22:57;3.90;99.90
11961;DHT22;6040;49.358;11.140;2024-02-26T07:25:24;4.20;99.90
11961;DHT22;6040;49.358;11.140;2024-02-26T07:27:51;5.10;99.90
11961;DHT22;6040;49.358;11.140;2024-02-26T07:30:18;3.90;99.90
11961;DHT22;6040;49.358;11.140;2024-02-26T07:32:44;4.00;99.90
11961;DHT22;6040;49.358;11.140;2024-02-26T07:35:11;6.00;99.90
11961;DHT22;6040;49.358;11.140;2024-02-26T07:37:38;4.30;99.90
11961;DHT22;6040;49.358;11.140;2024-02-26T07:40:08;4.40;99.90
11961;DHT22;6040;49.358;11.140;2024-02-26T07:42:35;4.60;99.90
11961;DHT22;6040;49.358;11.140;2024-02-26T07:45:02;4.70;99.90
11961;DHT22;6040;49.358;11.140;2024-02-26T07:47:29;4.90;99.90
11961;DHT22;6040;49.358;11.140;2024-02-26T07:49:56;5.00;99.90
11961;DHT22;6040;49.358;11.140;2024-02-26T07:52:23;5.10;99.90
11961;DHT22;6040;49.358;11.140;2024-02-26T07:54:50;5.20;99.90
11961;DHT22;6040;49.358;11.140;2024-02-26T07:57:18;5.30;99.90
11961;DHT22;6040;49.358;11.140;2024-02-26T07:59:46;5.40;99.90
11961;DHT22;6040;49.358;11.140;2024-02-26T08:02:15;6.20;99.90
11961;DHT22;6040;49.358;11.140;2024-02-26T08:04:42;5.50;99.90
11961;DHT22;6040;49.358;11.140;2024-02-26T08:07:09;5.50;99.90
11961;DHT22;6040;49.358;11.140;2024-02-26T08:09:35;5.50;99.90
11961;DHT22;6040;49.358;11.140;2024-02-26T08:12:03;5.60;99.90
11961;DHT22;6040;49.358;11.140;2024-02-26T08:14:31;5.50;99.90
11961;DHT22;6040;49.358;11.140;2024-02-26T08:16:58;5.40;99.90
11961;DHT22;6040;49.358;11.140;2024-02-26T08:19:26;5.50;99.90
11961;DHT22;6040;49.358;11.140;2024-02-26T08:21:53;5.50;99.90
11961;DHT22;6040;49.358;11.140;2024-02-26T08:24:20;5.50;99.90
11961;DHT22;6040;49.358;11.140;2024-02-26T08:26:47;5.60;99.90
11961;DHT22;6040;49.358;11.140;2024-02-26T08:29:14;5.60;99.90
11961;DHT22;6040;49.358;11.140;2024-02-26T08:31:42;5.60;99.90
11961;DHT22;6040;49.358;11.140;2024-02-26T08:34:09;5.70;99.90
11961;DHT22;6040;49.358;11.140;2024-02-26T08:36:36;5.70;99.90
11961;DHT22;6040;49.358;11.140;2024-02-26T08:39:03;5.80;99.90
11961;DHT22;6040;49.358;11.140;2024-02-26T08:41:30;5.90;99.90
11961;DHT22;6040;49.358;11.140;2024-02-26T08:43:57;6.10;99.90
11961;DHT22;6040;49.358;11.140;2024-02-26T08:46:24;6.50;99.90
11961;DHT22;6040;49.358;11.140;2024-02-26T08:48:52;6.40;99.90
11961;DHT22;6040;49.358;11.140;2024-02-26T08:51:19;6.60;99.90
11961;DHT22;6040;49.358;11.140;2024-02-26T08:53:46;7.10;99.90
11961;DHT22;6040;49.358;11.140;2024-02-26T08:56:13;7.10;99.90
11961;DHT22;6040;49.358;11.140;2024-02-26T08:58:42;7.30;99.90
11961;DHT22;6040;49.358;11.140;2024-02-26T09:01:09;7.50;99.90
11961;DHT22;6040;49.358;11.140;2024-02-26T09:03:35;7.80;99.90
11961;DHT22;6040;49.358;11.140;2024-02-26T09:06:03;8.00;99.90
11961;DHT22;6040;49.358;11.140;2024-02-26T09:08:31;8.10;99.90
11961;DHT22;6040;49.358;11.140;2024-02-26T09:10:58;7.70;99.90
11961;DHT22;6040;49.358;11.140;2024-02-26T09:13:25;8.00;99.90
11961;DHT22;6040;49.358;11.140;2024-02-26T09:15:52;8.00;99.90
11961;DHT22;6040;49.358;11.140;2024-02-26T09:18:20;8.10;99.90
11961;DHT22;6040;49.358;11.140;2024-02-26T09:20:47;8.10;99.90
11961;DHT22;6040;49.358;11.140;2024-02-26T09:23:15;8.20;99.90
11961;DHT22;6040;49.358;11.140;2024-02-26T09:25:42;8.50;99.90
11961;DHT22;6040;49.358;11.140;2024-02-26T09:28:08;8.80;99.90
11961;DHT22;6040;49.358;11.140;2024-02-26T09:30:35;9.30;99.90
11961;DHT22;6040;49.358;11.140;2024-02-26T09:33:02;9.80;99.90
11961;DHT22;6040;49.358;11.140;2024-02-26T09:35:29;10.00;99.90
11961;DHT22;6040;49.358;11.140;2024-02-26T09:37:56;10.10;99.90
11961;DHT22;6040;49.358;11.140;2024-02-26T09:40:24;10.20;99.90
11961;DHT22;6040;49.358;11.140;2024-02-26T09:42:59;10.10;99.90
11961;DHT22;6040;49.358;11.140;2024-02-26T09:45:28;10.10;99.90
11961;DHT22;6040;49.358;11.140;2024-02-26T09:47:56;11.80;99.90
11961;DHT22;6040;49.358;11.140;2024-02-26T09:50:23;9.90;99.90
11961;DHT22;6040;49.358;11.140;2024-02-26T09:52:51;9.70;99.90
11961;DHT22;6040;49.358;11.140;2024-02-26T09:55:18;9.40;99.90
11961;DHT22;6040;49.358;11.140;2024-02-26T09:57:46;10.90;99.90
11961;DHT22;6040;49.358;11.140;2024-02-26T10:00:18;9.00;99.90
11961;DHT22;6040;49.358;11.140;2024-02-26T10:02:46;9.00;99.90
11961;DHT22;6040;49.358;11.140;2024-02-26T10:05:16;9.00;99.90
11961;DHT22;6040;49.358;11.140;2024-02-26T10:07:44;9.20;99.90
11961;DHT22;6040;49.358;11.140;2024-02-26T10:10:11;9.20;99.90
11961;DHT22;6040;49.358;11.140;2024-02-26T10:12:39;9.20;99.90
11961;DHT22;6040;49.358;11.140;2024-02-26T10:15:08;9.20;99.90
11961;DHT22;6040;49.358;11.140;2024-02-26T10:17:35;9.20;99.90
11961;DHT22;6040;49.358;11.140;2024-02-26T10:20:13;9.30;99.90
11961;DHT22;6040;49.358;11.140;2024-02-26T10:22:41;9.30;99.90
11961;DHT22;6040;49.358;11.140;2024-02-26T10:25:08;9.30;99.90
11961;DHT22;6040;49.358;11.140;2024-02-26T10:27:35;9.60;99.90
11961;DHT22;6040;49.358;11.140;2024-02-26T10:30:03;9.70;99.90
11961;DHT22;6040;49.358;11.140;2024-02-26T10:32:32;9.90;99.90
11961;DHT22;6040;49.358;11.140;2024-02-26T10:34:59;9.90;99.90
11961;DHT22;6040;49.358;11.140;2024-02-26T10:37:26;10.00;99.90
11961;DHT22;6040;49.358;11.140;2024-02-26T10:39:52;10.10;99.90
11961;DHT22;6040;49.358;11.140;2024-02-26T10:42:20;10.20;99.90
11961;DHT22;6040;49.358;11.140;2024-02-26T10:44:46;10.30;99.90
11961;DHT22;6040;49.358;11.140;2024-02-26T10:47:14;10.50;99.90
11961;DHT22;6040;49.358;11.140;2024-02-26T10:49:46;10.50;99.90
11961;DHT22;6040;49.358;11.140;2024-02-26T10:52:15;11.30;99.90
11961;DHT22;6040;49.358;11.140;2024-02-26T10:54:42;10.50;99.50
11961;DHT22;6040;49.358;11.140;2024-02-26T10:57:13;10.60;99.90
11961;DHT22;6040;49.358;11.140;2024-02-26T10:59:41;10.90;99.90
11961;DHT22;6040;49.358;11.140;2024-02-26T11:02:10;11.00;99.30
11961;DHT22;6040;49.358;11.140;2024-02-26T11:04:38;11.00;99.40
11961;DHT22;6040;49.358;11.140;2024-02-26T11:07:08;11.00;99.90
11961;DHT22;6040;49.358;11.140;2024-02-26T11:09:36;11.10;99.20
11961;DHT22;6040;49.358;11.140;2024-02-26T11:12:08;11.10;98.50
11961;DHT22;6040;49.358;11.140;2024-02-26T11:14:39;11.20;98.70
11961;DHT22;6040;49.358;11.140;2024-02-26T11:17:07;12.40;98.80
11961;DHT22;6040;49.358;11.140;2024-02-26T11:19:36;11.40;99.70
11961;DHT22;6040;49.358;11.140;2024-02-26T11:22:06;11.50;98.00
11961;DHT22;6040;49.358;11.140;2024-02-26T11:24:33;11.50;97.50
11961;DHT22;6040;49.358;11.140;2024-02-26T11:27:06;11.70;97.90
11961;DHT22;6040;49.358;11.140;2024-02-26T11:29:39;11.90;96.70
11961;DHT22;6040;49.358;11.140;2024-02-26T11:32:07;12.00;98.10
11961;DHT22;6040;49.358;11.140;2024-02-26T11:34:34;12.10;96.60
11961;DHT22;6040;49.358;11.140;2024-02-26T11:37:10;12.40;98.00
11961;DHT22;6040;49.358;11.140;2024-02-26T11:39:38;12.50;98.10
11961;DHT22;6040;49.358;11.140;2024-02-26T11:42:06;12.60;96.90
11961;DHT22;6040;49.358;11.140;2024-02-26T11:44:34;12.70;96.60
11961;DHT22;6040;49.358;11.140;2024-02-26T11:47:10;12.80;95.70
11961;DHT22;6040;49.358;11.140;2024-02-26T11:49:37;12.90;96.80
11961;DHT22;6040;49.358;11.140;2024-02-26T11:52:06;13.10;96.60
11961;DHT22;6040;49.358;11.140;2024-02-26T11:54:44;12.70;95.50
11961;DHT22;6040;49.358;11.140;2024-02-26T11:57:21;12.80;96.10
11961;DHT22;6040;49.358;11.140;2024-02-26T11:59:48;13.10;96.00
11961;DHT22;6040;49.358;11.140;2024-02-26T12:02:41;13.20;95.60
11961;DHT22;6040;49.358;11.140;2024-02-26T12:05:11;13.30;95.60
11961;DHT22;6040;49.358;11.140;2024-02-26T12:07:45;13.60;94.90
11961;DHT22;6040;49.358;11.140;2024-02-26T12:10:23;13.80;94.50
11961;DHT22;6040;49.358;11.140;2024-02-26T12:12:53;13.90;94.10
11961;DHT22;6040;49.358;11.140;2024-02-26T12:15:22;14.40;95.30
11961;DHT22;6040;49.358;11.140;2024-02-26T12:17:50;14.90;93.50
11961;DHT22;6040;49.358;11.140;2024-02-26T12:20:18;14.80;92.40
11961;DHT22;6040;49.358;11.140;2024-02-26T12:22:46;14.50;92.80
11961;DHT22;6040;49.358;11.140;2024-02-26T12:25:14;14.40;93.20
11961;DHT22;6040;49.358;11.140;2024-02-26T12:27:42;14.40;93.60
11961;DHT22;6040;49.358;11.140;2024-02-26T12:30:10;14.70;92.80
11961;DHT22;6040;49.358;11.140;2024-02-26T12:32:37;14.60;92.40
11961;DHT22;6040;49.358;11.140;2024-02-26T12:35:05;14.50;91.80
11961;DHT22;6040;49.358;11.140;2024-02-26T12:37:32;14.30;92.70
11961;DHT22;6040;49.358;11.140;2024-02-26T12:40:02;14.60;91.50
11961;DHT22;6040;49.358;11.140;2024-02-26T12:42:29;14.80;91.00
11961;DHT22;6040;49.358;11.140;2024-02-26T12:44:59;14.60;91.70
11961;DHT22;6040;49.358;11.140;2024-02-26T12:47:26;14.40;91.20
11961;DHT22;6040;49.358;11.140;2024-02-26T12:49:53;14.20;91.10
11961;DHT22;6040;49.358;11.140;2024-02-26T12:52:19;14.40;91.60
11961;DHT22;6040;49.358;11.140;2024-02-26T12:54:47;14.60;93.00
11961;DHT22;6040;49.358;11.140;2024-02-26T12:57:14;14.60;91.50
11961;DHT22;6040;49.358;11.140;2024-02-26T12:59:41;14.60;91.50
11961;DHT22;6040;49.358;11.140;2024-02-26T13:02:10;14.50;91.90
11961;DHT22;6040;49.358;11.140;2024-02-26T13:04:38;14.60;92.00
11961;DHT22;6040;49.358;11.140;2024-02-26T13:07:05;14.30;92.10
11961;DHT22;6040;49.358;11.140;2024-02-26T13:09:33;14.50;92.20
11961;DHT22;6040;49.358;11.140;2024-02-26T13:12:03;14.60;91.90
11961;DHT22;6040;49.358;11.140;2024-02-26T13:14:30;14.70;93.00
11961;DHT22;6040;49.358;11.140;2024-02-26T13:16:59;14.50;92.20
11961;DHT22;6040;49.358;11.140;2024-02-26T13:19:28;14.60;93.00
11961;DHT22;6040;49.358;11.140;2024-02-26T13:21:55;14.80;93.00
11961;DHT22;6040;49.358;11.140;2024-02-26T13:24:22;15.20;92.00
11961;DHT22;6040;49.358;11.140;2024-02-26T13:26:54;15.30;91.10
11961;DHT22;6040;49.358;11.140;2024-02-26T13:29:21;15.30;91.10
11961;DHT22;6040;49.358;11.140;2024-02-26T13:31:48;15.20;91.50
11961;DHT22;6040;49.358;11.140;2024-02-26T13:34:27;14.80;90.60
11961;DHT22;6040;49.358;11.140;2024-02-26T13:36:56;14.50;91.10
11961;DHT22;6040;49.358;11.140;2024-02-26T13:39:23;14.10;91.70
11961;DHT22;6040;49.358;11.140;2024-02-26T13:41:51;14.70;92.10
11961;DHT22;6040;49.358;11.140;2024-02-26T13:44:18;13.60;91.20
11961;DHT22;6040;49.358;11.140;2024-02-26T13:46:46;13.50;90.70
11961;DHT22;6040;49.358;11.140;2024-02-26T13:49:13;13.40;90.80
11961;DHT22;6040;49.358;11.140;2024-02-26T13:51:41;13.30;91.20
11961;DHT22;6040;49.358;11.140;2024-02-26T13:54:08;13.30;91.70
11961;DHT22;6040;49.358;11.140;2024-02-26T13:56:36;13.20;91.90
11961;DHT22;6040;49.358;11.140;2024-02-26T13:59:03;13.10;92.50
11961;DHT22;6040;49.358;11.140;2024-02-26T14:01:31;13.10;91.50
11961;DHT22;6040;49.358;11.140;2024-02-26T14:03:59;13.00;92.60
11961;DHT22;6040;49.358;11.140;2024-02-26T14:06:27;13.00;92.40
11961;DHT22;6040;49.358;11.140;2024-02-26T14:08:55;13.00;92.90
11961;DHT22;6040;49.358;11.140;2024-02-26T14:11:22;12.90;93.30
11961;DHT22;6040;49.358;11.140;2024-02-26T14:13:50;12.90;93.80
11961;DHT22;6040;49.358;11.140;2024-02-26T14:16:17;12.80;93.10
11961;DHT22;6040;49.358;11.140;2024-02-26T14:18:45;12.60;93.40
11961;DHT22;6040;49.358;11.140;2024-02-26T14:21:12;12.40;93.40
11961;DHT22;6040;49.358;11.140;2024-02-26T14:23:39;13.00;93.90
11961;DHT22;6040;49.358;11.140;2024-02-26T14:26:09;12.40;94.00
11961;DHT22;6040;49.358;11.140;2024-02-26T14:28:36;12.40;93.70
11961;DHT22;6040;49.358;11.140;2024-02-26T14:31:05;12.30;93.40
11961;DHT22;6040;49.358;11.140;2024-02-26T14:33:32;12.30;93.60
11961;DHT22;6040;49.358;11.140;2024-02-26T14:35:59;12.20;94.10
11961;DHT22;6040;49.358;11.140;2024-02-26T14:38:26;12.20;94.70
11961;DHT22;6040;49.358;11.140;2024-02-26T14:40:53;12.30;94.40
11961;DHT22;6040;49.358;11.140;2024-02-26T14:43:21;12.30;94.70
11961;DHT22;6040;49.358;11.140;2024-02-26T14:45:48;12.20;95.10
11961;DHT22;6040;49.358;11.140;2024-02-26T14:48:15;12.30;93.50
11961;DHT22;6040;49.358;11.140;2024-02-26T14:50:41;12.20;93.90
11961;DHT22;6040;49.358;11.140;2024-02-26T14:53:08;12.00;93.90
11961;DHT22;6040;49.358;11.140;2024-02-26T14:55:35;11.90;94.20
11961;DHT22;6040;49.358;11.140;2024-02-26T14:58:02;11.90;95.00
11961;DHT22;6040;49.358;11.140;2024-02-26T15:00:30;11.80;95.50
11961;DHT22;6040;49.358;11.140;2024-02-26T15:02:59;12.70;96.00
11961;DHT22;6040;49.358;11.140;2024-02-26T15:05:26;12.20;95.50
11961;DHT22;6040;49.358;11.140;2024-02-26T15:07:53;11.80;95.10
11961;DHT22;6040;49.358;11.140;2024-02-26T15:10:19;11.80;96.20
11961;DHT22;6040;49.358;11.140;2024-02-26T15:12:46;11.80;95.80
11961;DHT22;6040;49.358;11.140;2024-02-26T15:15:13;11.80;95.70
11961;DHT22;6040;49.358;11.140;2024-02-26T15:17:41;11.70;95.40
11961;DHT22;6040;49.358;11.140;2024-02-26T15:20:09;11.70;95.30
11961;DHT22;6040;49.358;11.140;2024-02-26T15:22:36;11.70;94.70
11961;DHT22;6040;49.358;11.140;2024-02-26T15:25:04;12.40;95.30
11961;DHT22;6040;49.358;11.140;2024-02-26T15:27:31;11.50;95.20
11961;DHT22;6040;49.358;11.140;2024-02-26T15:29:57;11.50;95.10
11961;DHT22;6040;49.358;11.140;2024-02-26T15:32:25;11.40;95.40
11961;DHT22;6040;49.358;11.140;2024-02-26T15:34:54;11.30;95.70
11961;DHT22;6040;49.358;11.140;2024-02-26T15:37:21;11.30;95.90
11961;DHT22;6040;49.358;11.140;2024-02-26T15:39:48;12.20;96.30
11961;DHT22;6040;49.358;11.140;2024-02-26T15:42:15;11.10;96.20
11961;DHT22;6040;49.358;11.140;2024-02-26T15:44:42;11.00;96.90
11961;DHT22;6040;49.358;11.140;2024-02-26T15:47:08;10.90;96.80
11961;DHT22;6040;49.358;11.140;2024-02-26T15:49:35;10.80;97.40
11961;DHT22;6040;49.358;11.140;2024-02-26T15:52:04;10.90;97.60
11961;DHT22;6040;49.358;11.140;2024-02-26T15:54:31;10.80;97.80
11961;DHT22;6040;49.358;11.140;2024-02-26T15:56:57;10.90;97.20
11961;DHT22;6040;49.358;11.140;2024-02-26T15:59:24;10.80;97.50
11961;DHT22;6040;49.358;11.140;2024-02-26T16:01:51;10.80;98.30
11961;DHT22;6040;49.358;11.140;2024-02-26T16:04:18;10.80;98.10